createdAt,value
2019-02-02T00:00:32.680Z,98725.88
2019-02-02T00:03:03.702Z,98729.70
2019-02-02T00:05:34.657Z,98732.20
2019-02-02T00:08:05.926Z,98738.28
2019-02-02T00:10:37.076Z,98748.33
2019-02-02T00:13:11.117Z,98755.66
2019-02-02T00:15:42.042Z,98751.71
2019-02-02T00:18:12.995Z,98753.84
2019-02-02T00:20:43.922Z,98757.92
2019-02-02T00:23:14.987Z,98759.45
2019-02-02T00:25:45.888Z,98755.57
2019-02-02T00:28:16.798Z,98758.17
2019-02-02T00:30:48.106Z,98758.00
2019-02-02T00:33:18.988Z,98755.40
2019-02-02T00:35:49.900Z,98759.64
2019-02-02T00:38:20.910Z,98753.64
2019-02-02T00:40:51.852Z,98756.64
2019-02-02T00:43:23.085Z,98758.77
2019-02-02T00:45:54.113Z,98755.83
2019-02-02T00:48:25.304Z,98747.73
2019-02-02T00:50:57.590Z,98744.47
2019-02-02T00:53:28.577Z,98747.86
2019-02-02T00:55:59.533Z,98747.89
2019-02-02T00:58:30.729Z,98745.97
2019-02-02T01:01:01.737Z,98750.44
2019-02-02T01:03:32.983Z,98746.19
2019-02-02T01:06:04.989Z,98750.30
2019-02-02T01:08:36.119Z,98747.91
2019-02-02T01:11:10.123Z,98748.63
2019-02-02T01:13:41.033Z,98741.49
2019-02-02T01:16:12.056Z,98738.43
2019-02-02T01:18:43.013Z,98743.84
2019-02-02T01:21:13.997Z,98740.20
2019-02-02T01:23:45.100Z,98739.66
2019-02-02T01:26:16.412Z,98750.22
2019-02-02T01:28:47.334Z,98753.78
2019-02-02T01:31:18.287Z,98757.00
2019-02-02T01:33:49.562Z,98756.06
2019-02-02T01:36:20.790Z,98756.48
2019-02-02T01:38:51.705Z,98767.12
2019-02-02T01:41:22.957Z,98758.43
2019-02-02T01:43:53.883Z,98765.92
2019-02-02T01:46:24.811Z,98761.17
2019-02-02T01:48:55.797Z,98764.00
2019-02-02T01:51:26.742Z,98761.80
2019-02-02T01:53:57.637Z,98759.05
2019-02-02T01:56:28.659Z,98757.58
2019-02-02T01:58:59.585Z,98750.67
2019-02-02T02:01:30.549Z,98760.69
2019-02-02T02:04:01.802Z,98755.33
2019-02-02T02:06:32.720Z,98752.73
2019-02-02T02:09:04.561Z,98754.59
2019-02-02T02:11:35.508Z,98747.86
2019-02-02T02:14:06.692Z,98742.25
2019-02-02T02:16:37.613Z,98737.67
2019-02-02T02:19:08.731Z,98746.08
2019-02-02T02:21:39.651Z,98746.35
2019-02-02T02:24:10.658Z,98750.30
2019-02-02T02:26:41.704Z,98747.91
2019-02-02T02:29:12.893Z,98745.18
2019-02-02T02:31:43.779Z,98742.61
2019-02-02T02:34:14.734Z,98734.49
2019-02-02T02:36:45.937Z,98744.27
2019-02-02T02:39:16.850Z,98749.67
2019-02-02T02:41:47.799Z,98745.58
2019-02-02T02:44:18.727Z,98742.31
2019-02-02T02:46:49.640Z,98741.66
2019-02-02T02:49:20.573Z,98736.40
2019-02-02T02:51:51.539Z,98731.67
2019-02-02T02:54:22.467Z,98736.62
2019-02-02T02:56:53.399Z,98731.06
2019-02-02T02:59:24.314Z,98726.84
2019-02-02T03:01:55.669Z,98728.34
2019-02-02T03:04:26.791Z,98720.33
2019-02-02T03:06:57.723Z,98718.92
2019-02-02T03:09:28.664Z,98728.30
2019-02-02T03:11:59.933Z,98731.78
2019-02-02T03:14:30.932Z,98724.21
2019-02-02T03:17:01.837Z,98732.73
2019-02-02T03:19:32.835Z,98725.75
2019-02-02T03:22:03.763Z,98726.48
2019-02-02T03:24:34.717Z,98724.23
2019-02-02T03:27:05.859Z,98731.46
2019-02-02T03:29:37.061Z,98732.62
2019-02-02T03:32:07.949Z,98732.58
2019-02-02T03:34:38.909Z,98730.56
2019-02-02T03:37:09.888Z,98735.21
2019-02-02T03:39:41.131Z,98739.42
2019-02-02T03:42:12.084Z,98729.06
2019-02-02T03:44:46.045Z,98726.42
2019-02-02T03:47:17.101Z,98738.66
2019-02-02T03:49:48.333Z,98737.72
2019-02-02T03:52:19.318Z,98731.16
2019-02-02T03:54:50.367Z,98722.36
2019-02-02T03:57:21.488Z,98717.88
2019-02-02T03:59:52.397Z,98722.55
2019-02-02T04:02:23.343Z,98714.72
2019-02-02T04:04:57.292Z,98712.74
2019-02-02T04:07:28.245Z,98725.08
2019-02-02T04:09:59.153Z,98726.80
2019-02-02T04:12:30.058Z,98744.52
2019-02-02T04:15:01.039Z,98750.61
2019-02-02T04:17:32.097Z,98753.11
2019-02-02T04:20:03.061Z,98753.27
2019-02-02T04:22:35.783Z,98745.73
2019-02-02T04:25:07.947Z,98733.98
2019-02-02T04:27:38.878Z,98741.48
2019-02-02T04:30:14.638Z,98733.23
2019-02-02T04:32:46.087Z,98734.38
2019-02-02T04:35:17.094Z,98749.06
2019-02-02T04:37:48.093Z,98755.39
2019-02-02T04:40:19.294Z,98748.14
2019-02-02T04:42:50.201Z,98757.83
2019-02-02T04:45:21.212Z,98765.19
2019-02-02T04:47:52.218Z,98768.08
2019-02-02T04:50:23.163Z,98771.56
2019-02-02T04:52:54.071Z,98774.56
2019-02-02T04:55:25.141Z,98784.92
2019-02-02T04:57:56.022Z,98778.48
2019-02-02T05:00:27.963Z,98783.05
2019-02-02T05:02:58.983Z,98781.00
2019-02-02T05:05:30.021Z,98780.27
2019-02-02T05:08:01.041Z,98779.66
2019-02-02T05:10:32.048Z,98775.56
2019-02-02T05:13:02.952Z,98777.99
2019-02-02T05:15:33.840Z,98771.12
2019-02-02T05:18:04.968Z,98760.72
2019-02-02T05:20:35.857Z,98757.82
2019-02-02T05:23:06.778Z,98756.06
2019-02-02T05:25:37.695Z,98767.35
2019-02-02T05:28:08.589Z,98764.19
2019-02-02T05:30:40.071Z,98769.29
2019-02-02T05:33:11.027Z,98763.77
2019-02-02T05:35:41.972Z,98767.73
2019-02-02T05:38:12.853Z,98762.52
2019-02-02T05:40:43.773Z,98765.16
2019-02-02T05:43:25.062Z,98773.36
2019-02-02T05:45:47.297Z,98783.43
2019-02-02T05:48:18.297Z,98790.80
2019-02-02T05:50:49.211Z,98805.36
2019-02-02T05:53:20.107Z,98807.26
2019-02-02T05:55:51.343Z,98817.88
2019-02-02T05:58:22.569Z,98830.25
2019-02-02T06:00:55.266Z,98833.98
2019-02-02T06:03:26.214Z,98840.76
2019-02-02T06:05:57.432Z,98831.66
2019-02-02T06:08:28.328Z,98837.64
2019-02-02T06:10:59.289Z,98834.25
2019-02-02T06:13:30.287Z,98834.41
2019-02-02T06:16:01.308Z,98839.91
2019-02-02T06:18:32.605Z,98833.98
2019-02-02T06:21:03.502Z,98833.58
2019-02-02T06:23:34.447Z,98825.38
2019-02-02T06:26:05.899Z,98823.84
2019-02-02T06:28:36.813Z,98815.37
2019-02-02T06:31:07.757Z,98814.03
2019-02-02T06:33:38.761Z,98813.30
2019-02-02T06:36:09.660Z,98823.61
2019-02-02T06:38:40.626Z,98834.10
2019-02-02T06:41:11.620Z,98839.45
2019-02-02T06:43:42.505Z,98846.70
2019-02-02T06:46:13.711Z,98844.19
2019-02-02T06:48:44.725Z,98846.45
2019-02-02T06:51:15.640Z,98841.04
2019-02-02T06:53:50.121Z,98844.27
2019-02-02T06:56:21.040Z,98855.52
2019-02-02T06:58:51.966Z,98856.45
2019-02-02T07:01:22.995Z,98862.11
2019-02-02T07:03:53.958Z,98875.22
2019-02-02T07:06:24.881Z,98876.02
2019-02-02T07:08:56.317Z,98871.20
2019-02-02T07:11:27.246Z,98873.16
2019-02-02T07:13:58.161Z,98878.43
2019-02-02T07:16:29.132Z,98886.39
2019-02-02T07:19:01.221Z,98877.35
2019-02-02T07:21:32.240Z,98889.39
2019-02-02T07:24:03.477Z,98895.05
2019-02-02T07:26:34.364Z,98905.06
2019-02-02T07:29:05.778Z,98902.39
2019-02-02T07:31:36.721Z,98901.83
2019-02-02T07:34:07.706Z,98897.47
2019-02-02T07:36:38.624Z,98902.39
2019-02-02T07:39:10.054Z,98917.58
2019-02-02T07:41:41.296Z,98922.40
2019-02-02T07:44:12.298Z,98921.80
2019-02-02T07:46:43.542Z,98914.49
2019-02-02T07:49:14.455Z,98915.88
2019-02-02T07:51:45.432Z,98913.67
2019-02-02T07:54:16.782Z,98905.30
2019-02-02T07:56:47.694Z,98900.09
2019-02-02T07:59:18.568Z,98904.92
2019-02-02T08:01:49.513Z,98895.14
2019-02-02T08:04:20.456Z,98890.04
2019-02-02T08:06:51.432Z,98896.21
2019-02-02T08:09:22.412Z,98898.85
2019-02-02T08:11:53.323Z,98893.38
2019-02-02T08:14:24.250Z,98891.71
2019-02-02T08:16:55.543Z,98897.09
2019-02-02T08:19:26.428Z,98885.61
2019-02-02T08:21:57.444Z,98882.81
2019-02-02T08:24:28.390Z,98904.69
2019-02-02T08:26:59.421Z,98910.34
2019-02-02T08:29:30.691Z,98918.94
2019-02-02T08:32:01.649Z,98915.02
2019-02-02T08:34:32.625Z,98925.59
2019-02-02T08:37:03.750Z,98927.55
2019-02-02T08:39:35.074Z,98931.81
2019-02-02T08:42:06.408Z,98949.00
2019-02-02T08:44:37.365Z,98941.08
2019-02-02T08:47:08.684Z,98960.09
2019-02-02T08:49:40.412Z,98984.84
2019-02-02T08:52:11.758Z,98994.47
2019-02-02T08:54:42.774Z,98994.70
2019-02-02T08:57:13.798Z,98997.77
2019-02-02T08:59:44.697Z,99002.61
2019-02-02T09:02:15.855Z,99003.46
2019-02-02T09:04:47.011Z,99009.92
2019-02-02T09:07:17.973Z,99012.00
2019-02-02T09:09:48.918Z,99011.09
2019-02-02T09:12:19.909Z,99010.20
2019-02-02T09:14:50.827Z,99001.38
2019-02-02T09:17:21.769Z,98996.47
2019-02-02T09:19:52.654Z,99002.17
2019-02-02T09:22:23.592Z,98996.67
2019-02-02T09:24:54.501Z,99010.44
2019-02-02T09:27:25.419Z,99011.05
2019-02-02T09:29:56.347Z,99023.05
2019-02-02T09:32:27.310Z,99017.27
2019-02-02T09:34:58.251Z,99013.41
2019-02-02T09:37:29.145Z,99012.13
2019-02-02T09:40:00.362Z,99018.22
2019-02-02T09:42:31.489Z,99022.16
2019-02-02T09:45:02.396Z,99028.33
2019-02-02T09:47:33.363Z,99031.92
2019-02-02T09:50:04.712Z,99033.33
2019-02-02T09:52:35.765Z,99040.53
2019-02-02T09:55:10.143Z,99058.41
2019-02-02T09:57:41.074Z,99061.80
2019-02-02T10:00:20.650Z,99060.80
2019-02-02T10:02:51.779Z,99053.12
2019-02-02T10:05:22.705Z,99045.16
2019-02-02T10:07:53.948Z,99048.47
2019-02-02T10:10:26.927Z,99050.70
2019-02-02T10:12:57.966Z,99045.64
2019-02-02T10:15:28.874Z,99054.68
2019-02-02T10:17:59.811Z,99053.66
2019-02-02T10:20:31.704Z,99059.92
2019-02-02T10:23:02.636Z,99048.85
2019-02-02T10:25:33.953Z,99041.31
2019-02-02T10:28:05.663Z,99034.59
2019-02-02T10:30:42.591Z,99029.97
2019-02-02T10:33:15.665Z,99035.90
2019-02-02T10:35:46.712Z,99044.42
2019-02-02T10:38:17.639Z,99059.02
2019-02-02T10:40:48.532Z,99064.52
2019-02-02T10:43:19.492Z,99064.04
2019-02-02T10:45:50.700Z,99067.06
2019-02-02T10:48:21.575Z,99066.34
2019-02-02T10:50:52.528Z,99064.15
2019-02-02T10:53:23.767Z,99053.23
2019-02-02T10:55:55.051Z,99055.06
2019-02-02T10:58:26.027Z,99061.03
2019-02-02T11:00:57.105Z,99054.24
2019-02-02T11:03:28.016Z,99062.91
2019-02-02T11:05:59.550Z,99073.67
2019-02-02T11:08:30.507Z,99078.41
2019-02-02T11:11:01.534Z,99079.84
2019-02-02T11:13:32.946Z,99084.34
2019-02-02T11:16:04.350Z,99080.45
2019-02-02T11:18:35.628Z,99072.39
2019-02-02T11:21:06.627Z,99069.30
2019-02-02T11:23:37.547Z,99065.47
2019-02-02T11:26:08.494Z,99059.91
2019-02-02T11:28:39.534Z,99065.53
2019-02-02T11:31:10.452Z,99063.70
2019-02-02T11:33:44.259Z,99067.41
2019-02-02T11:36:14.401Z,99063.45
2019-02-02T11:38:47.212Z,99067.30
2019-02-02T11:41:18.336Z,99065.41
2019-02-02T11:43:49.603Z,99069.23
2019-02-02T11:46:20.569Z,99068.78
2019-02-02T11:48:51.808Z,99069.53
2019-02-02T11:51:22.811Z,99074.20
2019-02-02T11:53:53.761Z,99075.56
2019-02-02T11:56:24.738Z,99083.02
2019-02-02T11:58:55.739Z,99078.03
2019-02-02T12:01:26.631Z,99082.28
2019-02-02T12:03:57.866Z,99084.96
2019-02-02T12:06:28.811Z,99091.41
2019-02-02T12:09:00.015Z,99101.63
2019-02-02T12:11:31.113Z,99096.28
2019-02-02T12:14:02.120Z,99100.69
2019-02-02T12:16:33.088Z,99101.75
2019-02-02T12:19:04.655Z,99094.36
2019-02-02T12:21:35.714Z,99104.13
2019-02-02T12:24:15.913Z,99103.91
2019-02-02T12:26:39.515Z,99108.97
2019-02-02T12:29:10.578Z,99116.89
2019-02-02T12:31:41.475Z,99117.17
2019-02-02T12:34:12.385Z,99119.67
2019-02-02T12:36:43.326Z,99127.47
2019-02-02T12:39:14.984Z,99136.06
2019-02-02T12:41:45.934Z,99137.28
2019-02-02T12:44:17.148Z,99132.45
2019-02-02T12:46:48.066Z,99132.63
2019-02-02T12:49:19.068Z,99138.22
2019-02-02T12:51:49.980Z,99144.63
2019-02-02T12:54:21.536Z,99146.48
2019-02-02T12:56:52.501Z,99143.53
2019-02-02T12:59:23.431Z,99142.36
2019-02-02T13:01:54.351Z,99144.27
2019-02-02T13:04:25.625Z,99146.91
2019-02-02T13:06:56.625Z,99148.80
2019-02-02T13:13:27.094Z,99146.48
2019-02-02T13:15:58.314Z,99154.94
2019-02-02T13:18:29.674Z,99164.42
2019-02-02T13:21:00.618Z,99167.83
2019-02-02T13:23:31.512Z,99170.32
2019-02-02T13:26:05.374Z,99168.25
2019-02-02T13:32:34.395Z,99172.00
2019-02-02T13:35:06.143Z,99174.50
2019-02-02T13:37:37.430Z,99171.54
2019-02-02T13:40:11.538Z,99172.98
2019-02-02T13:42:42.492Z,99164.95
2019-02-02T13:45:14.283Z,99161.23
2019-02-02T13:47:45.377Z,99168.30
2019-02-02T13:50:18.062Z,99177.30
2019-02-02T13:52:49.910Z,99182.72
2019-02-02T13:55:20.903Z,99187.27
2019-02-02T13:57:52.187Z,99196.63
2019-02-02T14:00:26.799Z,99204.47
2019-02-02T14:03:02.873Z,99207.36
2019-02-02T14:05:30.753Z,99209.63
2019-02-02T14:08:01.715Z,99220.42
2019-02-02T14:10:34.187Z,99222.12
2019-02-02T14:13:05.191Z,99223.97
2019-02-02T14:15:39.188Z,99227.99
2019-02-02T14:18:09.159Z,99225.77
2019-02-02T14:20:40.065Z,99225.95
2019-02-02T14:23:11.009Z,99231.58
2019-02-02T14:25:44.003Z,99215.20
2019-02-02T14:28:14.957Z,99223.09
2019-02-02T14:30:45.961Z,99230.42
2019-02-02T14:33:19.877Z,99236.80
2019-02-02T14:35:50.933Z,99234.19
2019-02-02T14:38:21.901Z,99239.08
2019-02-02T14:40:52.871Z,99233.33
2019-02-02T14:43:24.140Z,99247.59
2019-02-02T14:45:55.282Z,99251.38
2019-02-02T14:48:26.291Z,99263.75
2019-02-02T14:50:57.192Z,99262.42
2019-02-02T14:53:28.569Z,99268.38
2019-02-02T14:55:59.610Z,99268.27
2019-02-02T14:58:30.843Z,99269.25
2019-02-02T15:01:01.803Z,99279.01
2019-02-02T15:03:32.871Z,99279.23
2019-02-02T15:06:04.183Z,99279.72
2019-02-02T15:08:35.126Z,99284.47
2019-02-02T15:11:06.079Z,99290.62
2019-02-02T15:13:37.050Z,99294.00
2019-02-02T15:16:07.952Z,99297.89
2019-02-02T15:18:39.198Z,99305.09
2019-02-02T15:21:10.214Z,99304.22
2019-02-02T15:23:41.147Z,99313.52
2019-02-02T15:26:12.183Z,99317.91
2019-02-02T15:28:43.525Z,99325.22
2019-02-02T15:31:14.417Z,99330.17
2019-02-02T15:33:45.342Z,99338.04
2019-02-02T15:36:16.312Z,99338.23
2019-02-02T15:38:49.580Z,99335.09
2019-02-02T15:41:20.815Z,99345.81
2019-02-02T15:43:54.398Z,99353.72
2019-02-02T15:46:25.424Z,99360.92
2019-02-02T15:48:56.312Z,99358.23
2019-02-02T15:51:27.638Z,99363.69
2019-02-02T15:53:58.554Z,99367.47
2019-02-02T15:56:29.614Z,99371.88
2019-02-02T15:59:00.581Z,99373.60
2019-02-02T16:01:32.075Z,99375.45
2019-02-02T16:04:03.617Z,99386.59
2019-02-02T16:06:37.088Z,99396.00
2019-02-02T16:09:11.064Z,99393.91
2019-02-02T16:11:42.049Z,99398.48
2019-02-02T16:14:13.029Z,99399.92
2019-02-02T16:16:43.986Z,99411.91
2019-02-02T16:19:14.929Z,99412.23
2019-02-02T16:21:46.381Z,99412.30
2019-02-02T16:24:17.421Z,99407.80
2019-02-02T16:26:48.831Z,99415.14
2019-02-02T16:29:20.153Z,99423.63
2019-02-02T16:31:51.942Z,99430.83
2019-02-02T16:34:22.992Z,99433.34
2019-02-02T16:36:53.996Z,99436.95
2019-02-02T16:39:24.917Z,99446.81
2019-02-02T16:41:56.194Z,99445.11
2019-02-02T16:44:27.288Z,99449.56
2019-02-02T16:46:58.254Z,99452.16
2019-02-02T16:49:29.166Z,99462.75
2019-02-02T16:52:00.131Z,99472.34
2019-02-02T16:54:31.669Z,99475.40
2019-02-02T16:57:02.902Z,99481.91
2019-02-02T16:59:34.205Z,99479.14
2019-02-02T17:02:05.205Z,99479.28
2019-02-02T17:04:36.149Z,99484.55
2019-02-02T17:07:07.264Z,99489.34
2019-02-02T17:09:38.286Z,99493.70
2019-02-02T17:12:09.709Z,99494.72
2019-02-02T17:14:41.870Z,99497.41
2019-02-02T17:17:12.805Z,99503.08
2019-02-02T17:19:43.857Z,99510.88
2019-02-02T17:22:14.780Z,99519.81
2019-02-02T17:24:45.785Z,99532.04
2019-02-02T17:27:16.701Z,99532.98
2019-02-02T17:29:48.479Z,99542.83
2019-02-02T17:32:21.047Z,99557.28
2019-02-02T17:34:52.003Z,99567.39
2019-02-02T17:37:23.017Z,99567.72
2019-02-02T17:39:53.950Z,99573.02
2019-02-02T17:42:24.913Z,99571.78
2019-02-02T17:44:56.229Z,99582.78
2019-02-02T17:47:27.250Z,99584.32
2019-02-02T17:49:59.737Z,99594.90
2019-02-02T17:52:30.765Z,99607.98
2019-02-02T17:55:03.645Z,99606.33
2019-02-02T17:57:34.968Z,99611.14
2019-02-02T18:00:09.340Z,99608.81
2019-02-02T18:02:40.292Z,99619.44
2019-02-02T18:05:11.254Z,99614.00
2019-02-02T18:07:42.828Z,99616.56
2019-02-02T18:10:15.591Z,99613.64
2019-02-02T18:12:46.560Z,99617.38
2019-02-02T18:15:18.869Z,99620.62
2019-02-02T18:17:51.808Z,99624.05
2019-02-02T18:20:23.058Z,99622.81
2019-02-02T18:22:54.011Z,99623.32
2019-02-02T18:25:25.085Z,99625.31
2019-02-02T18:27:56.450Z,99630.98
2019-02-02T18:30:27.690Z,99635.77
2019-02-02T18:32:59.102Z,99633.53
2019-02-02T18:35:30.010Z,99637.54
2019-02-02T18:38:01.251Z,99644.70
2019-02-02T18:40:32.499Z,99649.77
2019-02-02T18:43:04.121Z,99650.39
2019-02-02T18:45:35.114Z,99653.96
2019-02-02T18:48:07.227Z,99656.84
2019-02-02T18:50:38.476Z,99667.64
2019-02-02T18:53:09.731Z,99667.48
2019-02-02T18:55:45.008Z,99666.58
2019-02-02T18:58:16.252Z,99672.33
2019-02-02T19:00:47.457Z,99674.98
2019-02-02T19:03:18.492Z,99682.64
2019-02-02T19:05:50.312Z,99678.73
2019-02-02T19:08:21.359Z,99678.70
2019-02-02T19:10:52.479Z,99670.30
2019-02-02T19:13:23.532Z,99675.58
2019-02-02T19:15:54.889Z,99677.27
2019-02-02T19:18:27.047Z,99675.08
2019-02-02T19:20:58.031Z,99681.59
2019-02-02T19:23:29.130Z,99679.28
2019-02-02T19:26:00.485Z,99679.11
2019-02-02T19:28:39.516Z,99681.75
2019-02-02T19:31:04.730Z,99688.67
2019-02-02T19:33:36.122Z,99693.03
2019-02-02T19:36:07.207Z,99699.88
2019-02-02T19:38:38.399Z,99694.55
2019-02-02T19:41:09.438Z,99706.78
2019-02-02T19:43:40.679Z,99711.77
2019-02-02T19:46:11.702Z,99714.77
2019-02-02T19:48:42.647Z,99722.66
2019-02-02T19:51:13.619Z,99719.50
2019-02-02T19:53:45.092Z,99727.32
2019-02-02T19:56:16.181Z,99724.73
2019-02-02T19:58:47.915Z,99734.52
2019-02-02T20:01:22.052Z,99741.57
2019-02-02T20:03:53.875Z,99749.30
2019-02-02T20:06:24.869Z,99745.14
2019-02-02T20:08:58.812Z,99746.83
2019-02-02T20:11:30.133Z,99749.30
2019-02-02T20:14:04.408Z,99753.74
2019-02-02T20:16:35.997Z,99750.33
2019-02-02T20:19:07.665Z,99751.11
2019-02-02T20:21:40.863Z,99753.66
2019-02-02T20:24:14.184Z,99767.28
2019-02-02T20:26:45.358Z,99773.36
2019-02-02T20:29:16.852Z,99783.02
2019-02-02T20:31:48.158Z,99783.76
2019-02-02T20:34:19.448Z,99784.62
2019-02-02T20:36:50.413Z,99791.89
2019-02-02T20:39:21.806Z,99797.23
2019-02-02T20:41:52.956Z,99805.75
2019-02-02T20:44:24.536Z,99816.22
2019-02-02T20:46:55.893Z,99822.19
2019-02-02T20:49:27.293Z,99830.08
2019-02-02T20:51:59.014Z,99828.72
2019-02-02T20:54:30.523Z,99830.86
2019-02-02T20:57:01.872Z,99825.42
2019-02-02T20:59:33.200Z,99830.91
2019-02-02T21:02:04.647Z,99835.22
2019-02-02T21:04:35.679Z,99843.77
2019-02-02T21:07:06.794Z,99850.42
2019-02-02T21:09:38.171Z,99853.08
2019-02-02T21:12:09.343Z,99859.84
2019-02-02T21:14:41.190Z,99863.00
2019-02-02T21:17:12.569Z,99868.36
2019-02-02T21:19:43.550Z,99870.28
2019-02-02T21:22:14.873Z,99875.84
2019-02-02T21:24:45.961Z,99880.56
2019-02-02T21:27:17.207Z,99885.94
2019-02-02T21:29:49.016Z,99894.16
2019-02-02T21:32:21.015Z,99896.90
2019-02-02T21:34:52.543Z,99909.02
2019-02-02T21:37:23.469Z,99915.89
2019-02-02T21:39:54.778Z,99923.16
2019-02-02T21:42:25.779Z,99928.95
2019-02-02T21:45:00.406Z,99943.34
2019-02-02T21:47:31.790Z,99947.66
2019-02-02T21:50:03.131Z,99941.34
2019-02-02T21:52:36.484Z,99946.48
2019-02-02T21:55:09.664Z,99955.17
2019-02-02T21:57:40.660Z,99962.48
2019-02-02T22:00:26.026Z,99973.59
2019-02-02T22:02:57.152Z,99974.88
2019-02-02T22:05:28.085Z,99973.98
2019-02-02T22:07:59.130Z,99970.49
2019-02-02T22:10:30.265Z,99971.84
2019-02-02T22:13:01.728Z,99977.50
2019-02-02T22:15:35.730Z,99979.04
2019-02-02T22:18:06.997Z,99985.45
2019-02-02T22:20:37.945Z,99992.76
2019-02-02T22:23:09.274Z,99999.65
2019-02-02T22:25:41.269Z,100009.06
2019-02-02T22:28:12.218Z,100013.69
2019-02-02T22:30:43.293Z,100020.42
2019-02-02T22:33:14.356Z,100026.77
2019-02-02T22:35:45.793Z,100033.09
2019-02-02T22:38:17.025Z,100043.39
2019-02-02T22:40:48.065Z,100057.36
2019-02-02T22:43:19.078Z,100063.20
2019-02-02T22:45:50.055Z,100064.00
2019-02-02T22:48:21.061Z,100074.63
2019-02-02T22:50:52.174Z,100082.64
2019-02-02T22:53:23.225Z,100088.52
2019-02-02T22:55:54.182Z,100091.58
2019-02-02T22:58:25.135Z,100100.00
2019-02-02T23:01:28.896Z,100104.70
2019-02-02T23:04:58.038Z,100105.49
2019-02-02T23:08:01.373Z,100106.48
2019-02-02T23:11:30.486Z,100112.06
2019-02-02T23:14:47.420Z,100121.41
2019-02-02T23:17:18.680Z,100111.49
2019-02-02T23:19:49.760Z,100113.86
2019-02-02T23:22:20.957Z,100110.98
2019-02-02T23:24:51.934Z,100106.33
2019-02-02T23:27:22.964Z,100112.77
2019-02-02T23:29:53.975Z,100115.58
2019-02-02T23:32:24.960Z,100116.19
2019-02-02T23:34:56.240Z,100117.52
2019-02-02T23:37:27.238Z,100115.35
2019-02-02T23:39:58.858Z,100125.03
2019-02-02T23:42:29.889Z,100117.66
2019-02-02T23:45:00.849Z,100128.53
2019-02-02T23:47:31.891Z,100127.31
2019-02-02T23:50:02.799Z,100134.11
2019-02-02T23:52:33.819Z,100129.06
2019-02-02T23:55:05.338Z,100121.34
2019-02-02T23:57:36.726Z,100118.67
